Time;durP1;ratioP1;P1;durP2;ratioP2;P2;SDS_P1;SDS_P2;PMS_P1;PMS_P2;Temp;Humidity;BMP_temperature;BMP_pressure;BME280_temperature;BME280_humidity;BME280_pressure;Samples;Min_cycle;Max_cycle;Signal;HPM_P1;HPM_P2
2021/06/03 00:00:35;;;;;;;;;;;;;;;10.47;81.03;99573.16;1718422;82;20447;-81
2021/06/03 00:03:03;;;;;;;;;;;;;;;10.49;81.01;99577.03;1711585;84;20138;-80
2021/06/03 00:05:32;;;;;;;;;;;;;;;10.51;80.75;99582.62;1729293;82;20180;-81
2021/06/03 00:07:59;;;;;;;;;;;;;;;10.50;81.15;99575.72;1717106;82;20139;-80
2021/06/03 00:10:28;;;;;;;;;;;;;;;10.45;80.68;99579.27;1716374;82;20160;-80
2021/06/03 00:12:54;;;;;;;;;;;;;;;10.43;80.60;99583.64;1720856;82;20210;-80
2021/06/03 00:15:21;;;;;;;;;;;;;;;10.40;80.91;99587.13;1737092;82;20729;-80
2021/06/03 00:17:48;;;;;;;;;;;;;;;10.36;81.29;99586.77;1733172;82;20115;-79
2021/06/03 00:20:17;;;;;;;;;;;;;;;10.31;81.05;99593.34;1722083;82;20432;-80
2021/06/03 00:22:43;;;;;;;;;;;;;;;10.27;81.28;99590.80;1740377;82;20170;-80
2021/06/03 00:25:10;;;;;;;;;;;;;;;10.22;80.87;99591.30;1746261;81;20133;-81
2021/06/03 00:27:36;;;;;;;;;;;;;;;10.18;81.12;99585.28;1754990;81;20501;-80
2021/06/03 00:30:08;;;;;;;;;;;;;;;10.12;80.95;99591.88;1734611;82;20124;-81
2021/06/03 00:32:35;;;;;;;;;;;;;;;10.06;80.94;99592.83;1750557;82;20137;-80
2021/06/03 00:35:01;;;;;;;;;;;;;;;10.02;82.28;99589.00;1737066;82;20132;-82
2021/06/03 00:37:28;;;;;;;;;;;;;;;9.96;81.75;99596.00;1758559;82;20914;-81
2021/06/03 00:39:54;;;;;;;;;;;;;;;9.90;81.60;99595.23;1757721;82;20119;-81
2021/06/03 00:42:20;;;;;;;;;;;;;;;9.86;81.57;99592.27;1759980;82;20156;-80
2021/06/03 00:44:47;;;;;;;;;;;;;;;9.80;82.23;99596.25;1760402;82;20128;-80
2021/06/03 00:47:13;;;;;;;;;;;;;;;9.75;82.00;99598.92;1749028;82;20126;-82
2021/06/03 00:49:39;;;;;;;;;;;;;;;9.71;82.89;99603.29;1748550;81;20140;-80
2021/06/03 00:52:07;;;;;;;;;;;;;;;9.68;82.11;99603.77;1755061;82;20148;-81
2021/06/03 00:54:34;;;;;;;;;;;;;;;9.65;82.27;99596.89;1735032;82;20149;-81
2021/06/03 00:57:00;;;;;;;;;;;;;;;9.64;82.67;99596.90;1727014;82;20130;-80
2021/06/03 00:59:26;;;;;;;;;;;;;;;9.60;82.31;99596.52;1755780;82;20150;-81
2021/06/03 01:01:52;;;;;;;;;;;;;;;9.58;83.96;99604.77;1741410;82;20122;-81
2021/06/03 01:04:21;;;;;;;;;;;;;;;9.54;85.12;99597.01;1743669;82;20170;-81
2021/06/03 01:06:48;;;;;;;;;;;;;;;9.52;84.30;99595.32;1742152;82;20161;-81
2021/06/03 01:09:29;;;;;;;;;;;;;;;9.51;84.70;99595.77;1741286;82;20165;-81
2021/06/03 01:12:00;;;;;;;;;;;;;;;9.51;84.22;99602.67;1761055;81;20136;-81
2021/06/03 01:14:32;;;;;;;;;;;;;;;9.48;84.46;99601.42;1723442;82;20287;-82
2021/06/03 01:17:00;;;;;;;;;;;;;;;9.47;83.85;99603.17;1711112;82;20154;-82
2021/06/03 01:19:36;;;;;;;;;;;;;;;9.46;84.14;99609.67;1734647;82;20458;-80
2021/06/03 01:22:22;;;;;;;;;;;;;;;9.43;84.53;99611.87;1725424;83;20145;-81
2021/06/03 01:24:54;;;;;;;;;;;;;;;9.39;82.32;99605.42;1707713;82;20138;-81
2021/06/03 01:27:26;;;;;;;;;;;;;;;9.38;80.45;99603.72;1710551;82;20134;-80
2021/06/03 01:29:58;;;;;;;;;;;;;;;9.39;83.11;99606.72;1730419;83;20139;-81
2021/06/03 01:32:26;;;;;;;;;;;;;;;9.40;85.04;99604.56;1731340;82;20137;-81
2021/06/03 01:34:54;;;;;;;;;;;;;;;9.42;84.61;99609.30;1681913;84;20122;-81
2021/06/03 01:37:21;;;;;;;;;;;;;;;9.46;84.53;99608.38;1739568;82;20131;-81
2021/06/03 01:39:48;;;;;;;;;;;;;;;9.52;84.60;99610.89;1724496;83;20134;-81
2021/06/03 01:42:16;;;;;;;;;;;;;;;9.56;83.79;99609.97;1706802;82;20124;-80
2021/06/03 01:44:44;;;;;;;;;;;;;;;9.62;85.25;99612.48;1714002;83;20132;-81
2021/06/03 01:47:10;;;;;;;;;;;;;;;9.68;84.25;99615.00;1714161;82;20138;-81
2021/06/03 01:49:37;;;;;;;;;;;;;;;9.75;84.78;99612.75;1710650;83;20118;-81
2021/06/03 01:52:06;;;;;;;;;;;;;;;9.81;83.31;99609.64;1740248;82;20126;-81
2021/06/03 01:54:33;;;;;;;;;;;;;;;9.85;84.49;99618.69;1716480;83;20123;-81
2021/06/03 01:57:01;;;;;;;;;;;;;;;9.87;85.35;99617.38;1721577;83;20132;-81
2021/06/03 01:59:28;;;;;;;;;;;;;;;9.89;84.71;99609.12;1711679;83;20897;-80
2021/06/03 02:01:54;;;;;;;;;;;;;;;9.90;85.29;99613.42;1746651;81;20152;-80
2021/06/03 02:04:21;;;;;;;;;;;;;;;9.92;82.54;99615.55;1744825;81;20153;-80
2021/06/03 02:06:47;;;;;;;;;;;;;;;9.92;83.55;99611.20;1738830;83;20186;-80
2021/06/03 02:09:14;;;;;;;;;;;;;;;9.93;84.41;99616.84;1737562;83;20178;-86
2021/06/03 02:11:44;;;;;;;;;;;;;;;9.96;85.25;99622.42;1741138;81;20138;-81
2021/06/03 02:14:14;;;;;;;;;;;;;;;10.00;84.14;99618.05;1767964;81;20448;-82
2021/06/03 02:16:58;;;;;;;;;;;;;;;10.00;83.99;99624.09;1756772;81;20184;-80
2021/06/03 02:19:35;;;;;;;;;;;;;;;9.99;84.72;99632.78;1717435;82;20139;-80
2021/06/03 02:22:04;;;;;;;;;;;;;;;10.00;85.57;99633.63;1743175;82;20480;-81
2021/06/03 02:24:31;;;;;;;;;;;;;;;10.00;83.59;99632.33;1745285;81;20116;-80
2021/06/03 02:26:58;;;;;;;;;;;;;;;10.01;84.99;99632.73;1766174;81;20133;-82
2021/06/03 02:29:26;;;;;;;;;;;;;;;10.03;85.42;99635.75;1765148;81;20117;-84
2021/06/03 02:31:57;;;;;;;;;;;;;;;10.07;84.08;99636.57;1770226;81;20594;-81
2021/06/03 02:34:25;;;;;;;;;;;;;;;10.07;84.62;99636.13;1728804;82;20126;-82
2021/06/03 02:36:52;;;;;;;;;;;;;;;10.06;84.58;99642.19;1760772;81;20124;-80
2021/06/03 02:39:18;;;;;;;;;;;;;;;10.05;83.28;99640.48;1763423;81;20132;-82
2021/06/03 02:41:45;;;;;;;;;;;;;;;10.00;84.21;99638.83;1768534;81;20129;-81
2021/06/03 02:44:11;;;;;;;;;;;;;;;9.92;84.03;99635.03;1772526;81;20133;-80
2021/06/03 02:46:38;;;;;;;;;;;;;;;9.87;83.92;99636.85;1771329;81;20137;-80
2021/06/03 02:49:05;;;;;;;;;;;;;;;9.82;83.22;99642.53;1767948;81;20128;-83
2021/06/03 02:51:32;;;;;;;;;;;;;;;9.76;82.36;99639.12;1769525;81;20156;-80
2021/06/03 02:53:59;;;;;;;;;;;;;;;9.68;85.27;99643.56;1769836;81;20444;-80
2021/06/03 02:56:27;;;;;;;;;;;;;;;9.62;84.23;99643.64;1769662;81;20272;-80
2021/06/03 02:58:53;;;;;;;;;;;;;;;9.60;83.20;99649.29;1766360;81;20129;-81
2021/06/03 03:01:21;;;;;;;;;;;;;;;9.59;85.81;99655.38;1754440;81;20152;-80
2021/06/03 03:03:48;;;;;;;;;;;;;;;9.62;85.22;99656.63;1772649;81;20101;-79
2021/06/03 03:06:15;;;;;;;;;;;;;;;9.65;85.30;99661.79;1771120;81;20148;-82
2021/06/03 03:08:42;;;;;;;;;;;;;;;9.66;84.49;99658.30;1770068;81;20563;-82
2021/06/03 03:11:09;;;;;;;;;;;;;;;9.67;86.15;99664.34;1757778;81;20136;-80
2021/06/03 03:13:37;;;;;;;;;;;;;;;9.65;87.18;99659.19;1750895;82;20916;-80
2021/06/03 03:16:05;;;;;;;;;;;;;;;9.66;85.40;99662.19;1735059;82;20426;-81
2021/06/03 03:18:32;;;;;;;;;;;;;;;9.68;85.55;99663.48;1745779;82;20126;-81
2021/06/03 03:20:59;;;;;;;;;;;;;;;9.68;84.97;99667.38;1747621;82;20137;-80
2021/06/03 03:23:25;;;;;;;;;;;;;;;9.71;85.69;99675.14;1738088;82;20139;-81
2021/06/03 03:25:55;;;;;;;;;;;;;;;9.74;85.79;99678.53;1737399;82;20178;-82
2021/06/03 03:28:22;;;;;;;;;;;;;;;9.78;85.57;99672.02;1751667;81;20156;-83
2021/06/03 03:30:49;;;;;;;;;;;;;;;9.82;85.70;99678.44;1740658;81;20463;-88
2021/06/03 03:33:17;;;;;;;;;;;;;;;9.88;85.53;99685.30;1766668;81;20120;-80
2021/06/03 03:35:46;;;;;;;;;;;;;;;9.95;85.64;99689.10;1741173;81;20888;-81
2021/06/03 03:38:18;;;;;;;;;;;;;;;10.01;85.48;99693.78;1734484;81;20137;-80
2021/06/03 03:40:47;;;;;;;;;;;;;;;10.04;85.21;99694.60;1762254;81;20162;-81
2021/06/03 03:43:13;;;;;;;;;;;;;;;10.06;83.85;99695.44;1737150;82;20134;-81
2021/06/03 03:45:40;;;;;;;;;;;;;;;10.07;84.90;99695.87;1735667;82;20178;-81
2021/06/03 03:48:07;;;;;;;;;;;;;;;10.09;85.92;99695.86;1735138;82;20127;-81
2021/06/03 03:50:37;;;;;;;;;;;;;;;10.11;85.65;99700.15;1754940;81;20144;-80
2021/06/03 03:53:05;;;;;;;;;;;;;;;10.11;84.08;99693.66;1750124;81;20137;-80
2021/06/03 03:55:32;;;;;;;;;;;;;;;10.13;84.56;99701.44;1733000;81;20165;-81
2021/06/03 03:57:58;;;;;;;;;;;;;;;10.14;83.72;99701.39;1742019;81;20136;-81
2021/06/03 04:00:27;;;;;;;;;;;;;;;10.13;83.98;99698.83;1726758;83;20163;-80
2021/06/03 04:02:58;;;;;;;;;;;;;;;10.15;82.35;99704.87;1762531;81;20144;-80
2021/06/03 04:05:27;;;;;;;;;;;;;;;10.15;84.00;99707.47;1747674;81;20144;-80
2021/06/03 04:07:53;;;;;;;;;;;;;;;10.21;83.99;99709.13;1745582;81;20136;-81
2021/06/03 04:10:21;;;;;;;;;;;;;;;10.24;84.35;99706.47;1762547;81;20138;-81
2021/06/03 04:12:49;;;;;;;;;;;;;;;10.31;83.68;99713.34;1737942;81;20157;-81
2021/06/03 04:15:16;;;;;;;;;;;;;;;10.34;83.85;99710.69;1754595;81;20132;-81
2021/06/03 04:17:45;;;;;;;;;;;;;;;10.41;83.61;99711.02;1751358;81;20125;-80
2021/06/03 04:20:15;;;;;;;;;;;;;;;10.45;83.96;99714.00;1762637;81;20229;-81
2021/06/03 04:22:42;;;;;;;;;;;;;;;10.54;83.30;99713.88;1766945;81;20835;-80
2021/06/03 04:25:10;;;;;;;;;;;;;;;10.67;83.61;99710.63;1773396;81;20143;-81
2021/06/03 04:27:36;;;;;;;;;;;;;;;10.78;83.28;99710.45;1767493;81;20161;-81
2021/06/03 04:30:06;;;;;;;;;;;;;;;10.92;82.32;99718.91;1747959;81;20132;-81
2021/06/03 04:32:33;;;;;;;;;;;;;;;10.76;82.22;99723.91;1759254;81;20125;-81
2021/06/03 04:34:59;;;;;;;;;;;;;;;10.90;82.06;99715.89;1772909;81;20125;-82
2021/06/03 04:37:26;;;;;;;;;;;;;;;10.99;81.98;99729.20;1772427;81;20428;-83
2021/06/03 04:39:53;;;;;;;;;;;;;;;11.01;81.21;99729.59;1755075;81;20136;-81
2021/06/03 04:42:19;;;;;;;;;;;;;;;11.07;81.59;99737.29;1765798;81;20103;-81
2021/06/03 04:44:45;;;;;;;;;;;;;;;11.10;81.41;99732.47;1766111;81;20149;-82
2021/06/03 04:47:12;;;;;;;;;;;;;;;11.17;81.20;99735.39;1751277;81;20446;-81
2021/06/03 04:49:38;;;;;;;;;;;;;;;11.20;81.17;99728.84;1771499;81;20098;-81
2021/06/03 04:54:52;;;;;;;;;;;;;;;11.27;80.57;99736.95;1773027;81;20194;-82
2021/06/03 04:57:18;;;;;;;;;;;;;;;11.32;80.52;99731.23;1762542;81;20461;-81
2021/06/03 04:59:45;;;;;;;;;;;;;;;11.37;79.53;99748.51;1760320;81;20240;-82
2021/06/03 05:02:11;;;;;;;;;;;;;;;11.28;80.50;99750.39;1744945;81;20136;-85
2021/06/03 05:04:37;;;;;;;;;;;;;;;11.37;80.61;99753.72;1775615;80;20151;-81
2021/06/03 05:07:04;;;;;;;;;;;;;;;11.27;80.46;99751.27;1770206;80;20595;-84
2021/06/03 05:09:30;;;;;;;;;;;;;;;11.32;80.12;99754.66;1759647;80;20111;-83
2021/06/03 05:11:56;;;;;;;;;;;;;;;11.33;80.16;99748.55;1767231;80;20155;-85
2021/06/03 05:14:23;;;;;;;;;;;;;;;11.49;79.94;99750.88;1775081;80;20123;-83
2021/06/03 05:16:50;;;;;;;;;;;;;;;11.48;79.95;99755.23;1770827;81;20180;-80
2021/06/03 05:19:16;;;;;;;;;;;;;;;11.54;79.04;99752.97;1767094;81;20114;-81
2021/06/03 05:21:42;;;;;;;;;;;;;;;11.55;79.06;99755.52;1761000;81;20129;-79
2021/06/03 05:24:08;;;;;;;;;;;;;;;11.57;78.79;99756.80;1757955;81;20155;-80
2021/06/03 05:26:35;;;;;;;;;;;;;;;11.56;79.30;99762.91;1760206;81;20173;-82
2021/06/03 05:29:01;;;;;;;;;;;;;;;11.60;79.33;99768.48;1760781;81;20474;-81
2021/06/03 05:31:27;;;;;;;;;;;;;;;11.62;79.16;99766.70;1760065;81;20189;-81
2021/06/03 05:33:55;;;;;;;;;;;;;;;11.63;79.76;99765.80;1757919;81;20142;-81
2021/06/03 05:36:21;;;;;;;;;;;;;;;11.66;79.23;99764.45;1767780;81;20472;-82
2021/06/03 05:38:47;;;;;;;;;;;;;;;11.74;78.74;99765.16;1748699;81;20117;-86
2021/06/03 05:41:14;;;;;;;;;;;;;;;11.80;78.88;99775.92;1753966;81;20162;-81
2021/06/03 05:43:42;;;;;;;;;;;;;;;11.84;78.82;99772.81;1745292;81;20140;-84
2021/06/03 05:46:08;;;;;;;;;;;;;;;11.94;78.59;99782.20;1764405;81;20145;-81
2021/06/03 05:48:34;;;;;;;;;;;;;;;11.97;78.31;99776.06;1758706;81;20122;-81
2021/06/03 05:51:00;;;;;;;;;;;;;;;12.14;78.31;99764.86;1745158;81;20149;-81
2021/06/03 05:53:27;;;;;;;;;;;;;;;12.19;78.02;99773.42;1760952;81;20136;-80
2021/06/03 05:55:53;;;;;;;;;;;;;;;12.36;78.02;99774.83;1755422;81;20138;-82
2021/06/03 05:58:19;;;;;;;;;;;;;;;12.47;77.69;99771.52;1744948;81;20177;-81
2021/06/03 06:00:45;;;;;;;;;;;;;;;12.58;77.46;99766.94;1757843;81;20174;-81
2021/06/03 06:03:28;;;;;;;;;;;;;;;12.60;77.59;99772.13;1749895;81;20130;-79
2021/06/03 06:08:33;;;;;;;;;;;;;;;12.82;76.55;99769.42;1754470;81;20165;-81
2021/06/03 06:11:00;;;;;;;;;;;;;;;12.91;76.48;99764.00;1751434;81;20137;-85
2021/06/03 06:13:26;;;;;;;;;;;;;;;12.81;75.98;99777.28;1749088;81;20155;-82
2021/06/03 06:15:52;;;;;;;;;;;;;;;12.81;76.09;99778.59;1758243;81;20433;-81
2021/06/03 06:18:18;;;;;;;;;;;;;;;12.90;75.48;99774.02;1758065;81;20130;-84
2021/06/03 06:20:44;;;;;;;;;;;;;;;13.11;75.54;99769.16;1747921;81;20141;-83
2021/06/03 06:23:14;;;;;;;;;;;;;;;13.21;74.92;99769.37;1742334;81;20434;-83
2021/06/03 06:25:42;;;;;;;;;;;;;;;13.29;74.29;99770.45;1744725;81;20164;-81
2021/06/03 06:28:10;;;;;;;;;;;;;;;13.50;73.02;99774.31;1754649;81;20205;-81
2021/06/03 06:30:36;;;;;;;;;;;;;;;13.67;73.26;99772.57;1743607;81;20152;-80
2021/06/03 06:33:03;;;;;;;;;;;;;;;13.82;73.19;99777.81;1759952;81;20121;-81
2021/06/03 06:35:31;;;;;;;;;;;;;;;13.95;72.97;99778.31;1746449;81;20137;-82
2021/06/03 06:37:58;;;;;;;;;;;;;;;14.02;72.48;99783.79;1753882;81;20121;-80
2021/06/03 06:40:24;;;;;;;;;;;;;;;14.11;71.21;99777.86;1760575;81;20141;-80
2021/06/03 06:42:54;;;;;;;;;;;;;;;14.23;71.60;99775.80;1746397;81;20197;-81
2021/06/03 06:45:23;;;;;;;;;;;;;;;14.29;69.38;99776.46;1754481;81;20137;-81
2021/06/03 06:47:49;;;;;;;;;;;;;;;14.45;70.92;99769.48;1751688;81;20160;-81
2021/06/03 06:50:16;;;;;;;;;;;;;;;14.57;69.90;99774.36;1748842;81;20122;-80
2021/06/03 06:52:42;;;;;;;;;;;;;;;14.66;69.40;99781.06;1753086;81;20131;-81
2021/06/03 06:55:10;;;;;;;;;;;;;;;14.77;69.45;99776.36;1734408;81;20259;-81
2021/06/03 06:57:37;;;;;;;;;;;;;;;14.91;68.37;99772.84;1748191;81;20152;-81
2021/06/03 07:00:09;;;;;;;;;;;;;;;14.80;68.01;99776.70;1762099;81;20153;-80
2021/06/03 07:02:35;;;;;;;;;;;;;;;14.93;68.14;99781.12;1749026;81;20126;-79
2021/06/03 07:05:03;;;;;;;;;;;;;;;15.09;67.76;99786.25;1746098;81;20141;-80
2021/06/03 07:07:30;;;;;;;;;;;;;;;15.20;68.13;99776.72;1756876;81;20158;-81
2021/06/03 07:09:56;;;;;;;;;;;;;;;15.39;68.93;99779.59;1733050;81;20148;-80
2021/06/03 07:12:23;;;;;;;;;;;;;;;15.44;66.21;99775.92;1750999;81;20153;-80
2021/06/03 07:14:49;;;;;;;;;;;;;;;15.66;66.10;99778.65;1742358;81;20127;-80
2021/06/03 07:17:17;;;;;;;;;;;;;;;15.80;65.81;99776.88;1758079;81;20262;-81
2021/06/03 07:19:43;;;;;;;;;;;;;;;16.06;64.61;99781.18;1751915;81;20117;-80
2021/06/03 07:22:10;;;;;;;;;;;;;;;16.19;66.18;99787.28;1748403;81;20141;-80
2021/06/03 07:24:37;;;;;;;;;;;;;;;16.17;62.97;99782.55;1740657;82;20140;-81
2021/06/03 07:27:05;;;;;;;;;;;;;;;16.33;65.45;99786.30;1744635;82;20177;-83
2021/06/03 07:29:31;;;;;;;;;;;;;;;16.40;63.51;99783.85;1734571;82;20167;-80
2021/06/03 07:31:57;;;;;;;;;;;;;;;16.45;61.59;99784.98;1748733;81;20982;-82
2021/06/03 07:34:25;;;;;;;;;;;;;;;16.45;61.58;99785.86;1753114;82;20134;-82
2021/06/03 07:36:51;;;;;;;;;;;;;;;16.43;60.04;99782.44;1756978;81;20153;-81
2021/06/03 07:39:21;;;;;;;;;;;;;;;16.57;61.23;99787.59;1743518;82;20483;-84
2021/06/03 07:41:48;;;;;;;;;;;;;;;16.71;61.54;99786.59;1723935;82;20180;-81
2021/06/03 07:44:14;;;;;;;;;;;;;;;16.78;59.54;99792.48;1747212;82;20134;-80
2021/06/03 07:46:40;;;;;;;;;;;;;;;16.69;56.85;99790.61;1747055;82;20160;-81
2021/06/03 07:49:07;;;;;;;;;;;;;;;16.94;59.23;99791.44;1744494;80;20138;-79
2021/06/03 07:51:34;;;;;;;;;;;;;;;16.96;56.07;99793.55;1741386;81;20124;-81
2021/06/03 07:54:00;;;;;;;;;;;;;;;16.92;57.44;99784.08;1747889;82;20138;-81
2021/06/03 07:56:26;;;;;;;;;;;;;;;17.07;57.02;99786.09;1749206;82;20159;-80
2021/06/03 07:58:52;;;;;;;;;;;;;;;17.19;56.02;99792.16;1745718;80;20128;-81
2021/06/03 08:01:19;;;;;;;;;;;;;;;17.26;54.36;99790.97;1745262;80;20457;-81
2021/06/03 08:03:45;;;;;;;;;;;;;;;17.37;56.52;99790.97;1752320;81;20133;-82
2021/06/03 08:06:11;;;;;;;;;;;;;;;17.37;53.60;99790.97;1741581;81;20127;-80
2021/06/03 08:08:37;;;;;;;;;;;;;;;17.27;55.47;99785.27;1748291;82;20425;-82
2021/06/03 08:11:05;;;;;;;;;;;;;;;17.24;52.42;99788.86;1753499;81;20165;-82
2021/06/03 08:13:32;;;;;;;;;;;;;;;17.26;54.14;99788.34;1748032;81;20132;-82
2021/06/03 08:15:58;;;;;;;;;;;;;;;17.40;54.79;99790.86;1744467;81;20189;-80
2021/06/03 08:18:25;;;;;;;;;;;;;;;17.35;54.40;99788.87;1744211;80;20122;-80
2021/06/03 08:21:00;;;;;;;;;;;;;;;17.33;54.78;99788.08;1755544;81;20122;-81
2021/06/03 08:23:25;;;;;;;;;;;;;;;17.43;55.47;99791.59;1753410;80;20163;-81
2021/06/03 08:25:52;;;;;;;;;;;;;;;17.61;55.61;99791.73;1752736;81;20219;-81
2021/06/03 08:28:19;;;;;;;;;;;;;;;17.57;51.63;99795.41;1744445;82;20149;-80
2021/06/03 08:30:46;;;;;;;;;;;;;;;17.65;50.93;99788.05;1746338;81;20133;-80
2021/06/03 08:33:12;;;;;;;;;;;;;;;17.56;51.39;99781.86;1701213;83;20147;-80
2021/06/03 08:35:39;;;;;;;;;;;;;;;17.72;53.40;99789.94;1721398;82;20464;-81
2021/06/03 08:38:08;;;;;;;;;;;;;;;17.65;52.70;99790.67;1717834;82;20881;-81
2021/06/03 08:40:44;;;;;;;;;;;;;;;17.76;52.36;99787.10;1742986;82;20152;-80
2021/06/03 08:43:10;;;;;;;;;;;;;;;17.91;54.16;99782.99;1722841;82;20158;-82
2021/06/03 08:45:39;;;;;;;;;;;;;;;18.00;52.70;99782.56;1748439;82;20151;-81
2021/06/03 08:48:05;;;;;;;;;;;;;;;18.05;50.54;99779.28;1718666;82;20848;-81
2021/06/03 08:50:35;;;;;;;;;;;;;;;18.00;50.97;99786.51;1711293;83;20227;-82
2021/06/03 08:53:02;;;;;;;;;;;;;;;18.26;53.28;99778.78;1745570;82;20438;-79
2021/06/03 08:58:16;;;;;;;;;;;;;;;18.37;49.95;99780.05;1750704;82;20359;-83
2021/06/03 09:00:43;;;;;;;;;;;;;;;18.53;50.33;99785.46;1725833;81;20139;-81
2021/06/03 09:03:10;;;;;;;;;;;;;;;18.71;51.79;99785.90;1738410;82;20111;-81
2021/06/03 09:05:37;;;;;;;;;;;;;;;18.77;50.87;99776.38;1728724;82;20887;-82
2021/06/03 09:08:22;;;;;;;;;;;;;;;19.00;49.77;99788.92;1751669;82;20236;-83
2021/06/03 09:10:51;;;;;;;;;;;;;;;19.24;52.93;99780.30;1716486;83;20157;-82
2021/06/03 09:13:20;;;;;;;;;;;;;;;19.50;48.72;99778.11;1718026;82;20250;-82
2021/06/03 09:15:56;;;;;;;;;;;;;;;19.65;47.30;99781.28;1744199;81;20166;-83
2021/06/03 09:18:32;;;;;;;;;;;;;;;19.65;45.71;99783.92;1737362;82;20579;-81
2021/06/03 09:21:20;;;;;;;;;;;;;;;19.81;48.34;99774.30;1735809;81;20162;-82
2021/06/03 09:23:56;;;;;;;;;;;;;;;20.06;44.19;99779.14;1754852;81;20176;-83
2021/06/03 09:26:21;;;;;;;;;;;;;;;20.28;43.20;99783.27;1768434;81;20139;-83
2021/06/03 09:28:48;;;;;;;;;;;;;;;20.48;46.69;99773.41;1762613;81;20118;-82
2021/06/03 09:31:23;;;;;;;;;;;;;;;20.75;47.64;99779.84;1760370;81;21020;-81
2021/06/03 09:34:03;;;;;;;;;;;;;;;21.06;45.01;99779.39;1766065;81;20155;-82
2021/06/03 09:36:36;;;;;;;;;;;;;;;21.10;43.30;99783.56;1760067;81;20124;-82
2021/06/03 09:39:17;;;;;;;;;;;;;;;21.14;40.98;99783.77;1762464;81;20604;-82
2021/06/03 09:41:50;;;;;;;;;;;;;;;21.15;40.87;99778.00;1767136;80;20131;-81
2021/06/03 09:44:19;;;;;;;;;;;;;;;21.19;42.26;99780.87;1766363;81;20124;-84
2021/06/03 09:46:52;;;;;;;;;;;;;;;21.34;44.46;99781.28;1763590;81;20251;-81
2021/06/03 09:49:22;;;;;;;;;;;;;;;21.40;41.28;99776.11;1760348;81;20171;-83
2021/06/03 09:51:55;;;;;;;;;;;;;;;21.60;42.57;99778.92;1757044;81;20472;-83
2021/06/03 09:54:22;;;;;;;;;;;;;;;21.72;40.14;99783.47;1761293;80;20134;-81
2021/06/03 09:56:52;;;;;;;;;;;;;;;21.32;37.70;99779.20;1766101;81;20156;-83
2021/06/03 09:59:31;;;;;;;;;;;;;;;21.50;38.89;99777.30;1758817;81;20170;-82
2021/06/03 10:02:06;;;;;;;;;;;;;;;21.65;39.86;99765.80;1742858;81;20154;-81
2021/06/03 10:04:51;;;;;;;;;;;;;;;21.79;39.71;99767.61;1742263;81;20178;-81
2021/06/03 10:07:22;;;;;;;;;;;;;;;21.97;40.91;99769.60;1744233;81;20139;-81
2021/06/03 10:09:52;;;;;;;;;;;;;;;22.03;38.85;99769.22;1746306;81;20141;-81
2021/06/03 10:12:27;;;;;;;;;;;;;;;22.19;40.20;99774.89;1742988;81;20132;-82
2021/06/03 10:14:57;;;;;;;;;;;;;;;22.37;41.10;99773.77;1757699;81;20203;-82
2021/06/03 10:17:32;;;;;;;;;;;;;;;22.50;41.63;99759.28;1744210;81;20261;-81
2021/06/03 10:20:02;;;;;;;;;;;;;;;22.73;40.72;99763.08;1750612;81;20126;-83
2021/06/03 10:22:31;;;;;;;;;;;;;;;22.94;41.93;99759.97;1748655;81;20460;-81
2021/06/03 10:25:09;;;;;;;;;;;;;;;23.00;41.98;99752.48;1749630;81;20134;-80
2021/06/03 10:27:45;;;;;;;;;;;;;;;23.22;40.18;99760.36;1745662;81;20151;-81
2021/06/03 10:30:15;;;;;;;;;;;;;;;23.53;40.01;99759.60;1749641;81;20138;-80
2021/06/03 10:32:43;;;;;;;;;;;;;;;23.75;38.63;99756.31;1743788;81;20114;-81
2021/06/03 10:35:13;;;;;;;;;;;;;;;23.68;38.10;99755.06;1738756;81;20137;-81
2021/06/03 10:37:41;;;;;;;;;;;;;;;23.39;34.91;99755.23;1746151;81;20140;-82
2021/06/03 10:40:11;;;;;;;;;;;;;;;23.38;37.37;99754.88;1736860;81;20177;-81
2021/06/03 10:42:37;;;;;;;;;;;;;;;23.45;37.38;99755.30;1743141;81;20132;-82
2021/06/03 10:45:07;;;;;;;;;;;;;;;23.40;39.44;99759.12;1737702;81;20168;-81
2021/06/03 10:47:33;;;;;;;;;;;;;;;23.29;37.51;99757.66;1752928;81;20504;-81
2021/06/03 10:50:01;;;;;;;;;;;;;;;23.22;33.26;99758.55;1752774;81;20134;-79
2021/06/03 10:52:28;;;;;;;;;;;;;;;23.20;36.55;99764.92;1744208;81;20143;-79
2021/06/03 10:54:56;;;;;;;;;;;;;;;23.22;35.78;99754.58;1751382;81;20137;-80
2021/06/03 10:57:26;;;;;;;;;;;;;;;23.38;36.65;99758.38;1743678;81;20181;-82
2021/06/03 10:59:54;;;;;;;;;;;;;;;23.10;33.69;99752.75;1739888;81;20147;-81
2021/06/03 11:02:21;;;;;;;;;;;;;;;23.26;35.22;99756.55;1743223;81;20126;-81
2021/06/03 11:04:47;;;;;;;;;;;;;;;23.50;36.08;99752.70;1748005;81;20133;-80
2021/06/03 11:07:14;;;;;;;;;;;;;;;23.81;34.91;99746.17;1749899;81;20136;-81
2021/06/03 11:09:43;;;;;;;;;;;;;;;24.18;36.23;99748.87;1742718;81;20534;-81
2021/06/03 11:12:22;;;;;;;;;;;;;;;24.28;33.72;99745.08;1737344;81;20122;-79
2021/06/03 11:15:09;;;;;;;;;;;;;;;24.35;34.81;99749.01;1744386;81;20145;-82
2021/06/03 11:17:56;;;;;;;;;;;;;;;24.37;35.48;99751.53;1755380;81;20525;-81
2021/06/03 11:20:38;;;;;;;;;;;;;;;24.49;33.33;99749.34;1750526;81;20133;-81
2021/06/03 11:23:25;;;;;;;;;;;;;;;24.45;34.00;99752.31;1743628;81;20140;-81
2021/06/03 11:25:51;;;;;;;;;;;;;;;24.08;34.96;99753.14;1737537;81;20134;-81
2021/06/03 11:28:20;;;;;;;;;;;;;;;23.99;36.73;99750.67;1754772;81;20118;-82
2021/06/03 11:30:46;;;;;;;;;;;;;;;24.15;34.85;99750.89;1722641;81;20130;-82
2021/06/03 11:33:12;;;;;;;;;;;;;;;24.19;34.32;99761.66;1760553;81;20153;-80
2021/06/03 11:35:38;;;;;;;;;;;;;;;24.21;33.53;99746.47;1751854;81;20167;-79
2021/06/03 11:38:05;;;;;;;;;;;;;;;24.42;32.62;99747.58;1756678;80;20113;-84
2021/06/03 11:40:31;;;;;;;;;;;;;;;24.65;33.72;99745.11;1751867;81;20140;-83
2021/06/03 11:43:08;;;;;;;;;;;;;;;24.81;34.74;99744.34;1750310;81;20992;-82
2021/06/03 11:45:40;;;;;;;;;;;;;;;25.06;33.35;99745.16;1749823;81;20484;-83
2021/06/03 11:48:18;;;;;;;;;;;;;;;25.34;32.63;99743.95;1755908;80;20118;-81
2021/06/03 11:50:47;;;;;;;;;;;;;;;25.52;30.94;99738.19;1750991;80;20148;-82
2021/06/03 11:53:17;;;;;;;;;;;;;;;25.74;31.13;99737.36;1747557;80;20165;-79
2021/06/03 11:55:52;;;;;;;;;;;;;;;26.02;31.50;99737.89;1746672;81;20124;-81
2021/06/03 11:58:34;;;;;;;;;;;;;;;26.28;30.90;99734.01;1748914;81;20194;-83
2021/06/03 12:01:15;;;;;;;;;;;;;;;26.66;30.38;99742.08;1751998;81;20235;-83
2021/06/03 12:03:47;;;;;;;;;;;;;;;26.89;32.28;99736.16;1753418;81;20114;-82
2021/06/03 12:06:16;;;;;;;;;;;;;;;26.63;27.99;99734.81;1756551;81;20210;-81
2021/06/03 12:08:56;;;;;;;;;;;;;;;26.86;28.91;99722.22;1754053;80;20145;-83
2021/06/03 12:11:39;;;;;;;;;;;;;;;27.05;27.76;99726.39;1758854;81;20196;-83
2021/06/03 12:14:11;;;;;;;;;;;;;;;27.19;26.66;99722.55;1758505;81;20161;-82
2021/06/03 12:16:40;;;;;;;;;;;;;;;27.27;26.79;99725.95;1749294;81;20181;-83
2021/06/03 12:19:13;;;;;;;;;;;;;;;27.50;26.94;99715.98;1755997;80;20514;-82
2021/06/03 12:21:40;;;;;;;;;;;;;;;27.63;29.34;99719.27;1754372;80;20160;-81
2021/06/03 12:24:08;;;;;;;;;;;;;;;27.67;26.95;99715.84;1742480;81;20160;-80
2021/06/03 12:26:40;;;;;;;;;;;;;;;27.79;26.04;99718.78;1726210;81;20168;-81
2021/06/03 12:29:07;;;;;;;;;;;;;;;27.92;26.89;99714.59;1732172;81;20124;-79
2021/06/03 12:31:33;;;;;;;;;;;;;;;27.76;27.27;99712.39;1735985;81;20143;-80
2021/06/03 12:34:00;;;;;;;;;;;;;;;27.93;27.69;99709.59;1737523;81;20158;-82
2021/06/03 12:36:30;;;;;;;;;;;;;;;27.99;25.80;99713.56;1736144;81;20491;-81
2021/06/03 12:38:58;;;;;;;;;;;;;;;28.01;28.76;99715.60;1732930;81;20900;-80
2021/06/03 12:41:30;;;;;;;;;;;;;;;27.52;23.98;99714.87;1735632;81;20138;-80
2021/06/03 12:44:00;;;;;;;;;;;;;;;27.48;24.56;99708.09;1739494;81;20167;-80
2021/06/03 12:46:44;;;;;;;;;;;;;;;27.77;25.79;99707.38;1736180;81;20199;-79
2021/06/03 12:49:26;;;;;;;;;;;;;;;27.93;25.06;99717.14;1732537;81;20150;-81
2021/06/03 12:52:01;;;;;;;;;;;;;;;28.11;25.08;99708.45;1733462;81;20126;-82
2021/06/03 12:54:33;;;;;;;;;;;;;;;28.57;26.14;99719.09;1730803;81;20532;-81
2021/06/03 12:57:02;;;;;;;;;;;;;;;28.85;28.99;99713.41;1752930;80;20506;-81
2021/06/03 12:59:31;;;;;;;;;;;;;;;28.98;24.37;99710.44;1721046;82;20120;-81
2021/06/03 13:02:00;;;;;;;;;;;;;;;29.07;24.19;99712.27;1749800;80;20149;-84
2021/06/03 13:04:47;;;;;;;;;;;;;;;29.34;23.11;99714.21;1740030;81;20229;-84